sensor_id;sensor_type;location;lat;lon;timestamp;temperature;humidity
18888;DHT22;9576;47.792;9.628;2023-07-29T00:00:50;17.60;99.90
18888;DHT22;9576;47.792;9.628;2023-07-29T00:03:51;17.70;99.90
18888;DHT22;9576;47.792;9.628;2023-07-29T00:06:53;17.70;99.90
18888;DHT22;9576;47.792;9.628;2023-07-29T00:09:55;17.60;99.90
18888;DHT22;9576;47.792;9.628;2023-07-29T00:12:57;17.60;99.90
18888;DHT22;9576;47.792;9.628;2023-07-29T00:16:00;17.60;99.90
18888;DHT22;9576;47.792;9.628;2023-07-29T00:19:03;17.60;99.90
18888;DHT22;9576;47.792;9.628;2023-07-29T00:22:05;17.60;99.90
18888;DHT22;9576;47.792;9.628;2023-07-29T00:25:09;17.60;99.90
18888;DHT22;9576;47.792;9.628;2023-07-29T00:28:11;17.60;99.90
18888;DHT22;9576;47.792;9.628;2023-07-29T00:31:14;17.70;99.90
18888;DHT22;9576;47.792;9.628;2023-07-29T00:34:16;17.70;99.90
18888;DHT22;9576;47.792;9.628;2023-07-29T00:37:20;17.70;99.90
18888;DHT22;9576;47.792;9.628;2023-07-29T00:40:22;17.60;99.90
18888;DHT22;9576;47.792;9.628;2023-07-29T00:43:24;17.60;99.90
18888;DHT22;9576;47.792;9.628;2023-07-29T00:46:28;17.50;99.90
18888;DHT22;9576;47.792;9.628;2023-07-29T00:49:30;17.50;99.90
18888;DHT22;9576;47.792;9.628;2023-07-29T00:52:33;17.40;99.90
18888;DHT22;9576;47.792;9.628;2023-07-29T00:55:35;17.50;99.90
18888;DHT22;9576;47.792;9.628;2023-07-29T00:58:37;17.50;99.90
18888;DHT22;9576;47.792;9.628;2023-07-29T01:01:40;17.50;99.90
18888;DHT22;9576;47.792;9.628;2023-07-29T01:04:42;17.40;99.90
18888;DHT22;9576;47.792;9.628;2023-07-29T01:07:49;17.40;99.90
18888;DHT22;9576;47.792;9.628;2023-07-29T01:11:01;17.50;99.90
18888;DHT22;9576;47.792;9.628;2023-07-29T01:14:10;17.50;99.90
18888;DHT22;9576;47.792;9.628;2023-07-29T01:17:22;17.50;99.90
18888;DHT22;9576;47.792;9.628;2023-07-29T01:20:25;17.50;99.90
18888;DHT22;9576;47.792;9.628;2023-07-29T01:23:31;17.50;99.90
18888;DHT22;9576;47.792;9.628;2023-07-29T01:26:33;17.50;99.90
18888;DHT22;9576;47.792;9.628;2023-07-29T01:29:35;17.40;99.90
18888;DHT22;9576;47.792;9.628;2023-07-29T01:32:41;17.40;99.90
18888;DHT22;9576;47.792;9.628;2023-07-29T01:35:48;17.30;99.90
18888;DHT22;9576;47.792;9.628;2023-07-29T01:38:54;17.30;99.90
18888;DHT22;9576;47.792;9.628;2023-07-29T01:41:56;17.30;99.90
18888;DHT22;9576;47.792;9.628;2023-07-29T01:44:59;17.30;99.90
18888;DHT22;9576;47.792;9.628;2023-07-29T01:48:01;17.20;99.90
18888;DHT22;9576;47.792;9.628;2023-07-29T01:51:03;17.20;99.90
18888;DHT22;9576;47.792;9.628;2023-07-29T01:54:06;17.30;99.90
18888;DHT22;9576;47.792;9.628;2023-07-29T01:57:08;17.20;99.90
18888;DHT22;9576;47.792;9.628;2023-07-29T02:00:11;17.20;99.90
18888;DHT22;9576;47.792;9.628;2023-07-29T02:03:13;17.20;99.90
18888;DHT22;9576;47.792;9.628;2023-07-29T02:06:15;17.20;99.90
18888;DHT22;9576;47.792;9.628;2023-07-29T02:09:18;17.20;99.90
18888;DHT22;9576;47.792;9.628;2023-07-29T02:12:20;17.10;99.90
18888;DHT22;9576;47.792;9.628;2023-07-29T02:15:22;17.10;99.90
18888;DHT22;9576;47.792;9.628;2023-07-29T02:18:24;17.10;99.90
18888;DHT22;9576;47.792;9.628;2023-07-29T02:21:26;17.10;99.90
18888;DHT22;9576;47.792;9.628;2023-07-29T02:24:29;17.10;99.90
18888;DHT22;9576;47.792;9.628;2023-07-29T02:27:31;17.10;99.90
18888;DHT22;9576;47.792;9.628;2023-07-29T02:30:33;17.00;99.90
18888;DHT22;9576;47.792;9.628;2023-07-29T02:33:35;17.00;99.90
18888;DHT22;9576;47.792;9.628;2023-07-29T02:36:37;17.00;99.90
18888;DHT22;9576;47.792;9.628;2023-07-29T02:39:41;17.00;99.90
18888;DHT22;9576;47.792;9.628;2023-07-29T02:42:43;17.00;99.90
18888;DHT22;9576;47.792;9.628;2023-07-29T02:45:45;16.90;99.90
18888;DHT22;9576;47.792;9.628;2023-07-29T02:48:47;16.90;99.90
18888;DHT22;9576;47.792;9.628;2023-07-29T02:51:49;16.90;99.90
18888;DHT22;9576;47.792;9.628;2023-07-29T02:54:52;16.80;99.90
18888;DHT22;9576;47.792;9.628;2023-07-29T02:57:54;16.80;99.90
18888;DHT22;9576;47.792;9.628;2023-07-29T03:01:00;16.80;99.90
18888;DHT22;9576;47.792;9.628;2023-07-29T03:04:02;16.80;99.90
18888;DHT22;9576;47.792;9.628;2023-07-29T03:07:04;16.80;99.90
18888;DHT22;9576;47.792;9.628;2023-07-29T03:10:09;16.80;99.90
18888;DHT22;9576;47.792;9.628;2023-07-29T03:13:11;16.80;99.90
18888;DHT22;9576;47.792;9.628;2023-07-29T03:16:14;16.90;99.90
18888;DHT22;9576;47.792;9.628;2023-07-29T03:19:16;16.80;99.90
18888;DHT22;9576;47.792;9.628;2023-07-29T03:22:18;16.80;99.90
18888;DHT22;9576;47.792;9.628;2023-07-29T03:25:21;16.80;99.90
18888;DHT22;9576;47.792;9.628;2023-07-29T03:28:24;16.80;99.90
18888;DHT22;9576;47.792;9.628;2023-07-29T03:31:26;16.90;99.90
18888;DHT22;9576;47.792;9.628;2023-07-29T03:34:28;16.80;99.90
18888;DHT22;9576;47.792;9.628;2023-07-29T03:37:30;16.90;99.90
18888;DHT22;9576;47.792;9.628;2023-07-29T03:40:33;16.90;99.90
18888;DHT22;9576;47.792;9.628;2023-07-29T03:43:35;16.90;99.90
18888;DHT22;9576;47.792;9.628;2023-07-29T03:46:37;17.00;99.90
18888;DHT22;9576;47.792;9.628;2023-07-29T03:49:39;17.00;99.90
18888;DHT22;9576;47.792;9.628;2023-07-29T03:52:41;16.90;99.90
18888;DHT22;9576;47.792;9.628;2023-07-29T03:55:44;16.90;99.90
18888;DHT22;9576;47.792;9.628;2023-07-29T03:58:47;16.90;99.90
18888;DHT22;9576;47.792;9.628;2023-07-29T04:01:49;17.00;99.90
18888;DHT22;9576;47.792;9.628;2023-07-29T04:04:51;17.00;99.90
18888;DHT22;9576;47.792;9.628;2023-07-29T04:07:54;17.00;99.90
18888;DHT22;9576;47.792;9.628;2023-07-29T04:10:57;17.00;99.90
18888;DHT22;9576;47.792;9.628;2023-07-29T04:13:59;17.00;99.90
18888;DHT22;9576;47.792;9.628;2023-07-29T04:17:01;16.90;99.90
18888;DHT22;9576;47.792;9.628;2023-07-29T04:20:03;17.00;99.90
18888;DHT22;9576;47.792;9.628;2023-07-29T04:23:05;17.00;99.90
18888;DHT22;9576;47.792;9.628;2023-07-29T04:26:09;17.00;99.90
18888;DHT22;9576;47.792;9.628;2023-07-29T04:29:11;17.00;99.90
18888;DHT22;9576;47.792;9.628;2023-07-29T04:32:13;17.10;99.90
18888;DHT22;9576;47.792;9.628;2023-07-29T04:35:15;17.10;99.90
18888;DHT22;9576;47.792;9.628;2023-07-29T04:38:17;17.10;99.90
18888;DHT22;9576;47.792;9.628;2023-07-29T04:41:20;17.00;99.90
18888;DHT22;9576;47.792;9.628;2023-07-29T04:44:22;17.00;99.90
18888;DHT22;9576;47.792;9.628;2023-07-29T04:47:24;17.00;99.90
18888;DHT22;9576;47.792;9.628;2023-07-29T04:50:25;17.00;99.90
18888;DHT22;9576;47.792;9.628;2023-07-29T04:53:27;16.90;99.90
18888;DHT22;9576;47.792;9.628;2023-07-29T04:56:31;16.80;99.90
18888;DHT22;9576;47.792;9.628;2023-07-29T04:59:33;16.70;99.90
18888;DHT22;9576;47.792;9.628;2023-07-29T05:02:34;16.60;99.90
18888;DHT22;9576;47.792;9.628;2023-07-29T05:05:36;16.60;99.90
18888;DHT22;9576;47.792;9.628;2023-07-29T05:08:38;16.50;99.90
18888;DHT22;9576;47.792;9.628;2023-07-29T05:11:42;16.50;99.90
18888;DHT22;9576;47.792;9.628;2023-07-29T05:14:45;16.50;99.90
18888;DHT22;9576;47.792;9.628;2023-07-29T05:17:47;16.50;99.90
18888;DHT22;9576;47.792;9.628;2023-07-29T05:20:49;16.60;99.90
18888;DHT22;9576;47.792;9.628;2023-07-29T05:23:51;16.70;99.90
18888;DHT22;9576;47.792;9.628;2023-07-29T05:26:54;16.80;99.90
18888;DHT22;9576;47.792;9.628;2023-07-29T05:29:56;16.90;99.90
18888;DHT22;9576;47.792;9.628;2023-07-29T05:32:58;17.00;99.90
18888;DHT22;9576;47.792;9.628;2023-07-29T05:36:00;17.10;99.90
18888;DHT22;9576;47.792;9.628;2023-07-29T05:39:02;17.20;99.90
18888;DHT22;9576;47.792;9.628;2023-07-29T05:42:06;17.30;99.90
18888;DHT22;9576;47.792;9.628;2023-07-29T05:45:09;17.40;99.90
18888;DHT22;9576;47.792;9.628;2023-07-29T05:48:11;17.50;99.90
18888;DHT22;9576;47.792;9.628;2023-07-29T05:51:13;17.60;99.90
18888;DHT22;9576;47.792;9.628;2023-07-29T05:54:15;17.60;99.90
18888;DHT22;9576;47.792;9.628;2023-07-29T05:57:18;17.70;99.90
18888;DHT22;9576;47.792;9.628;2023-07-29T06:00:20;17.60;99.90
18888;DHT22;9576;47.792;9.628;2023-07-29T06:03:22;17.60;99.90
18888;DHT22;9576;47.792;9.628;2023-07-29T06:06:23;17.80;99.90
18888;DHT22;9576;47.792;9.628;2023-07-29T06:09:25;17.90;99.90
18888;DHT22;9576;47.792;9.628;2023-07-29T06:12:29;17.90;99.90
18888;DHT22;9576;47.792;9.628;2023-07-29T06:15:30;18.00;99.90
18888;DHT22;9576;47.792;9.628;2023-07-29T06:18:32;17.90;99.90
18888;DHT22;9576;47.792;9.628;2023-07-29T06:21:34;17.90;99.90
18888;DHT22;9576;47.792;9.628;2023-07-29T06:24:36;17.90;99.90
18888;DHT22;9576;47.792;9.628;2023-07-29T06:27:40;17.90;99.90
18888;DHT22;9576;47.792;9.628;2023-07-29T06:30:42;17.90;99.90
18888;DHT22;9576;47.792;9.628;2023-07-29T06:33:43;17.90;99.90
18888;DHT22;9576;47.792;9.628;2023-07-29T06:36:45;18.00;99.90
18888;DHT22;9576;47.792;9.628;2023-07-29T06:39:47;18.00;99.90
18888;DHT22;9576;47.792;9.628;2023-07-29T06:42:51;18.20;99.90
18888;DHT22;9576;47.792;9.628;2023-07-29T06:45:53;18.50;99.90
18888;DHT22;9576;47.792;9.628;2023-07-29T06:48:55;18.60;99.90
18888;DHT22;9576;47.792;9.628;2023-07-29T06:51:57;18.80;99.90
18888;DHT22;9576;47.792;9.628;2023-07-29T06:54:59;18.80;99.90
18888;DHT22;9576;47.792;9.628;2023-07-29T06:58:03;18.90;99.90
18888;DHT22;9576;47.792;9.628;2023-07-29T07:01:05;18.90;99.90
18888;DHT22;9576;47.792;9.628;2023-07-29T07:04:06;19.10;99.90
18888;DHT22;9576;47.792;9.628;2023-07-29T07:07:08;19.10;99.90
18888;DHT22;9576;47.792;9.628;2023-07-29T07:10:10;19.20;99.90
18888;DHT22;9576;47.792;9.628;2023-07-29T07:13:13;19.30;99.90
18888;DHT22;9576;47.792;9.628;2023-07-29T07:16:15;19.30;99.90
18888;DHT22;9576;47.792;9.628;2023-07-29T07:19:17;19.40;99.90
18888;DHT22;9576;47.792;9.628;2023-07-29T07:22:19;19.60;99.90
18888;DHT22;9576;47.792;9.628;2023-07-29T07:25:21;19.60;99.90
18888;DHT22;9576;47.792;9.628;2023-07-29T07:28:24;19.80;99.90
18888;DHT22;9576;47.792;9.628;2023-07-29T07:31:26;19.90;99.90
18888;DHT22;9576;47.792;9.628;2023-07-29T07:34:28;20.00;99.90
18888;DHT22;9576;47.792;9.628;2023-07-29T07:37:30;20.10;99.90
18888;DHT22;9576;47.792;9.628;2023-07-29T07:40:32;20.20;99.90
18888;DHT22;9576;47.792;9.628;2023-07-29T07:43:35;20.20;99.90
18888;DHT22;9576;47.792;9.628;2023-07-29T07:46:37;20.20;99.90
18888;DHT22;9576;47.792;9.628;2023-07-29T07:49:39;20.20;99.90
18888;DHT22;9576;47.792;9.628;2023-07-29T07:52:41;20.30;99.90
18888;DHT22;9576;47.792;9.628;2023-07-29T07:55:43;20.30;99.90
18888;DHT22;9576;47.792;9.628;2023-07-29T07:58:46;20.40;99.90
18888;DHT22;9576;47.792;9.628;2023-07-29T08:01:48;20.60;99.90
18888;DHT22;9576;47.792;9.628;2023-07-29T08:04:50;20.60;99.90
18888;DHT22;9576;47.792;9.628;2023-07-29T08:07:52;20.80;99.90
18888;DHT22;9576;47.792;9.628;2023-07-29T08:10:54;20.90;99.90
18888;DHT22;9576;47.792;9.628;2023-07-29T08:13:58;21.10;99.90
18888;DHT22;9576;47.792;9.628;2023-07-29T08:17:00;21.30;99.90
18888;DHT22;9576;47.792;9.628;2023-07-29T08:20:02;21.50;99.90
18888;DHT22;9576;47.792;9.628;2023-07-29T08:23:04;21.60;99.90
18888;DHT22;9576;47.792;9.628;2023-07-29T08:26:06;21.70;99.90
18888;DHT22;9576;47.792;9.628;2023-07-29T08:29:09;21.70;99.90
18888;DHT22;9576;47.792;9.628;2023-07-29T08:32:11;21.60;99.90
18888;DHT22;9576;47.792;9.628;2023-07-29T08:35:13;21.70;99.90
18888;DHT22;9576;47.792;9.628;2023-07-29T08:38:15;21.90;99.90
18888;DHT22;9576;47.792;9.628;2023-07-29T08:41:21;21.90;99.90
18888;DHT22;9576;47.792;9.628;2023-07-29T08:44:30;22.00;99.90
18888;DHT22;9576;47.792;9.628;2023-07-29T08:47:32;22.00;99.90
18888;DHT22;9576;47.792;9.628;2023-07-29T08:50:35;22.10;99.90
18888;DHT22;9576;47.792;9.628;2023-07-29T08:53:38;22.30;99.90
18888;DHT22;9576;47.792;9.628;2023-07-29T08:56:41;22.30;99.90
18888;DHT22;9576;47.792;9.628;2023-07-29T08:59:45;22.10;99.90
18888;DHT22;9576;47.792;9.628;2023-07-29T09:02:47;22.10;99.90
18888;DHT22;9576;47.792;9.628;2023-07-29T09:05:49;22.30;99.90
18888;DHT22;9576;47.792;9.628;2023-07-29T09:08:53;22.40;99.90
18888;DHT22;9576;47.792;9.628;2023-07-29T09:11:56;22.70;99.90
18888;DHT22;9576;47.792;9.628;2023-07-29T09:15:00;23.00;99.90
18888;DHT22;9576;47.792;9.628;2023-07-29T09:18:09;23.30;99.90
18888;DHT22;9576;47.792;9.628;2023-07-29T09:21:11;23.20;99.90
18888;DHT22;9576;47.792;9.628;2023-07-29T09:24:16;23.10;99.90
18888;DHT22;9576;47.792;9.628;2023-07-29T09:27:24;23.10;99.90
18888;DHT22;9576;47.792;9.628;2023-07-29T09:30:28;23.20;99.90
18888;DHT22;9576;47.792;9.628;2023-07-29T09:33:34;23.10;99.90
18888;DHT22;9576;47.792;9.628;2023-07-29T09:36:37;23.00;99.90
18888;DHT22;9576;47.792;9.628;2023-07-29T09:39:43;23.10;99.90
18888;DHT22;9576;47.792;9.628;2023-07-29T09:42:49;23.10;99.90
18888;DHT22;9576;47.792;9.628;2023-07-29T09:45:53;23.10;99.90
18888;DHT22;9576;47.792;9.628;2023-07-29T09:48:57;23.10;99.90
18888;DHT22;9576;47.792;9.628;2023-07-29T09:52:00;23.10;99.90
18888;DHT22;9576;47.792;9.628;2023-07-29T09:55:03;23.10;99.90
18888;DHT22;9576;47.792;9.628;2023-07-29T09:58:05;23.10;99.90
18888;DHT22;9576;47.792;9.628;2023-07-29T10:01:10;23.20;99.90
18888;DHT22;9576;47.792;9.628;2023-07-29T10:04:13;23.30;99.90
18888;DHT22;9576;47.792;9.628;2023-07-29T10:07:16;23.50;99.90
18888;DHT22;9576;47.792;9.628;2023-07-29T10:10:18;23.50;99.90
18888;DHT22;9576;47.792;9.628;2023-07-29T10:13:21;23.60;99.90
18888;DHT22;9576;47.792;9.628;2023-07-29T10:16:25;23.70;99.90
18888;DHT22;9576;47.792;9.628;2023-07-29T10:19:27;23.80;99.90
18888;DHT22;9576;47.792;9.628;2023-07-29T10:22:35;23.80;99.90
18888;DHT22;9576;47.792;9.628;2023-07-29T10:25:38;24.10;99.90
18888;DHT22;9576;47.792;9.628;2023-07-29T10:28:47;24.40;99.90
18888;DHT22;9576;47.792;9.628;2023-07-29T10:31:52;24.90;99.90
18888;DHT22;9576;47.792;9.628;2023-07-29T10:34:54;25.20;99.90
18888;DHT22;9576;47.792;9.628;2023-07-29T10:37:57;25.20;99.90
18888;DHT22;9576;47.792;9.628;2023-07-29T10:40:59;25.10;99.90
18888;DHT22;9576;47.792;9.628;2023-07-29T10:44:01;25.00;99.90
18888;DHT22;9576;47.792;9.628;2023-07-29T10:47:12;25.30;99.90
18888;DHT22;9576;47.792;9.628;2023-07-29T10:50:18;25.50;99.90
18888;DHT22;9576;47.792;9.628;2023-07-29T10:53:20;25.50;99.90
18888;DHT22;9576;47.792;9.628;2023-07-29T10:56:32;25.30;99.90
18888;DHT22;9576;47.792;9.628;2023-07-29T10:59:34;25.40;99.90
18888;DHT22;9576;47.792;9.628;2023-07-29T11:02:38;25.50;99.90
18888;DHT22;9576;47.792;9.628;2023-07-29T11:05:50;25.20;99.90
18888;DHT22;9576;47.792;9.628;2023-07-29T11:08:52;25.20;99.90
18888;DHT22;9576;47.792;9.628;2023-07-29T11:11:57;25.30;99.90
18888;DHT22;9576;47.792;9.628;2023-07-29T11:15:02;25.40;99.90
18888;DHT22;9576;47.792;9.628;2023-07-29T11:18:06;25.30;99.90
18888;DHT22;9576;47.792;9.628;2023-07-29T11:21:14;25.20;99.90
18888;DHT22;9576;47.792;9.628;2023-07-29T11:24:18;25.30;99.90
18888;DHT22;9576;47.792;9.628;2023-07-29T11:27:20;25.30;99.90
18888;DHT22;9576;47.792;9.628;2023-07-29T11:30:22;25.10;99.90
18888;DHT22;9576;47.792;9.628;2023-07-29T11:33:26;25.10;99.90
18888;DHT22;9576;47.792;9.628;2023-07-29T11:36:28;25.50;99.90
18888;DHT22;9576;47.792;9.628;2023-07-29T11:39:30;25.90;99.90
18888;DHT22;9576;47.792;9.628;2023-07-29T11:42:33;26.00;99.90
18888;DHT22;9576;47.792;9.628;2023-07-29T11:45:35;25.90;99.90
18888;DHT22;9576;47.792;9.628;2023-07-29T11:48:44;25.80;99.90
18888;DHT22;9576;47.792;9.628;2023-07-29T11:51:46;25.70;99.90
18888;DHT22;9576;47.792;9.628;2023-07-29T11:54:49;25.80;99.90
18888;DHT22;9576;47.792;9.628;2023-07-29T11:57:51;25.50;99.90
18888;DHT22;9576;47.792;9.628;2023-07-29T12:00:54;25.50;99.90
18888;DHT22;9576;47.792;9.628;2023-07-29T12:03:57;25.80;99.90
18888;DHT22;9576;47.792;9.628;2023-07-29T12:07:00;26.00;99.90
18888;DHT22;9576;47.792;9.628;2023-07-29T12:10:02;26.20;99.90
18888;DHT22;9576;47.792;9.628;2023-07-29T12:13:04;26.40;99.90
18888;DHT22;9576;47.792;9.628;2023-07-29T12:16:09;26.60;99.90
18888;DHT22;9576;47.792;9.628;2023-07-29T12:19:13;26.80;99.90
18888;DHT22;9576;47.792;9.628;2023-07-29T12:22:18;26.90;99.90
18888;DHT22;9576;47.792;9.628;2023-07-29T12:25:21;27.10;99.90
18888;DHT22;9576;47.792;9.628;2023-07-29T12:28:24;27.50;99.90
18888;DHT22;9576;47.792;9.628;2023-07-29T12:31:31;27.90;99.90
18888;DHT22;9576;47.792;9.628;2023-07-29T12:34:36;27.70;99.90
18888;DHT22;9576;47.792;9.628;2023-07-29T12:37:39;27.10;99.90
18888;DHT22;9576;47.792;9.628;2023-07-29T12:40:43;26.50;99.90
18888;DHT22;9576;47.792;9.628;2023-07-29T12:43:45;26.10;99.90
18888;DHT22;9576;47.792;9.628;2023-07-29T12:46:47;25.70;99.90
18888;DHT22;9576;47.792;9.628;2023-07-29T12:49:50;25.50;99.90
18888;DHT22;9576;47.792;9.628;2023-07-29T12:52:52;25.20;99.90
18888;DHT22;9576;47.792;9.628;2023-07-29T12:55:54;25.00;99.90
18888;DHT22;9576;47.792;9.628;2023-07-29T12:58:56;24.80;99.90
18888;DHT22;9576;47.792;9.628;2023-07-29T13:01:58;24.60;99.90
18888;DHT22;9576;47.792;9.628;2023-07-29T13:05:02;24.20;99.90
18888;DHT22;9576;47.792;9.628;2023-07-29T13:08:04;23.80;99.90
18888;DHT22;9576;47.792;9.628;2023-07-29T13:11:06;23.30;99.90
18888;DHT22;9576;47.792;9.628;2023-07-29T13:14:08;23.00;99.90
18888;DHT22;9576;47.792;9.628;2023-07-29T13:17:10;22.70;99.90
18888;DHT22;9576;47.792;9.628;2023-07-29T13:20:13;22.40;99.90
18888;DHT22;9576;47.792;9.628;2023-07-29T13:23:15;22.30;99.90
18888;DHT22;9576;47.792;9.628;2023-07-29T13:26:17;22.30;99.90
18888;DHT22;9576;47.792;9.628;2023-07-29T13:29:19;22.40;99.90
18888;DHT22;9576;47.792;9.628;2023-07-29T13:32:21;22.30;99.90
18888;DHT22;9576;47.792;9.628;2023-07-29T13:35:24;21.90;99.90
18888;DHT22;9576;47.792;9.628;2023-07-29T13:38:26;21.70;99.90
18888;DHT22;9576;47.792;9.628;2023-07-29T13:41:28;21.60;99.90
18888;DHT22;9576;47.792;9.628;2023-07-29T13:44:30;21.60;99.90
18888;DHT22;9576;47.792;9.628;2023-07-29T13:47:32;21.60;99.90
18888;DHT22;9576;47.792;9.628;2023-07-29T13:50:35;21.50;99.90
18888;DHT22;9576;47.792;9.628;2023-07-29T13:53:37;21.50;99.90
18888;DHT22;9576;47.792;9.628;2023-07-29T13:56:39;21.50;99.90
18888;DHT22;9576;47.792;9.628;2023-07-29T13:59:41;21.50;99.90
18888;DHT22;9576;47.792;9.628;2023-07-29T14:02:43;21.40;99.90
18888;DHT22;9576;47.792;9.628;2023-07-29T14:05:46;21.40;99.90
18888;DHT22;9576;47.792;9.628;2023-07-29T14:08:48;21.30;99.90
18888;DHT22;9576;47.792;9.628;2023-07-29T14:11:50;21.20;99.90
18888;DHT22;9576;47.792;9.628;2023-07-29T14:14:52;21.10;99.90
18888;DHT22;9576;47.792;9.628;2023-07-29T14:17:54;21.00;99.90
18888;DHT22;9576;47.792;9.628;2023-07-29T14:20:57;21.00;99.90
18888;DHT22;9576;47.792;9.628;2023-07-29T14:24:00;21.00;99.90
18888;DHT22;9576;47.792;9.628;2023-07-29T14:27:02;20.90;99.90
18888;DHT22;9576;47.792;9.628;2023-07-29T14:30:05;20.90;99.90
18888;DHT22;9576;47.792;9.628;2023-07-29T14:33:07;20.70;99.90
18888;DHT22;9576;47.792;9.628;2023-07-29T14:36:11;20.50;99.90
18888;DHT22;9576;47.792;9.628;2023-07-29T14:39:12;20.50;99.90
18888;DHT22;9576;47.792;9.628;2023-07-29T14:42:14;20.40;99.90
18888;DHT22;9576;47.792;9.628;2023-07-29T14:45:16;20.40;99.90
18888;DHT22;9576;47.792;9.628;2023-07-29T14:48:18;20.20;99.90
18888;DHT22;9576;47.792;9.628;2023-07-29T14:51:22;20.10;99.90
18888;DHT22;9576;47.792;9.628;2023-07-29T14:54:24;19.90;99.90
18888;DHT22;9576;47.792;9.628;2023-07-29T14:57:26;19.80;99.90
18888;DHT22;9576;47.792;9.628;2023-07-29T15:00:28;19.70;99.90
18888;DHT22;9576;47.792;9.628;2023-07-29T15:03:30;19.80;99.90
18888;DHT22;9576;47.792;9.628;2023-07-29T15:06:33;19.90;99.90
18888;DHT22;9576;47.792;9.628;2023-07-29T15:09:36;20.00;99.90
18888;DHT22;9576;47.792;9.628;2023-07-29T15:12:37;20.10;99.90
18888;DHT22;9576;47.792;9.628;2023-07-29T15:15:40;20.10;99.90
18888;DHT22;9576;47.792;9.628;2023-07-29T15:18:42;20.10;99.90
18888;DHT22;9576;47.792;9.628;2023-07-29T15:21:45;20.10;99.90
18888;DHT22;9576;47.792;9.628;2023-07-29T15:24:47;20.00;99.90
18888;DHT22;9576;47.792;9.628;2023-07-29T15:27:49;20.00;99.90
18888;DHT22;9576;47.792;9.628;2023-07-29T15:30:52;19.90;99.90
18888;DHT22;9576;47.792;9.628;2023-07-29T15:33:55;19.90;99.90
18888;DHT22;9576;47.792;9.628;2023-07-29T15:36:58;19.80;99.90
18888;DHT22;9576;47.792;9.628;2023-07-29T15:40:00;19.80;99.90
18888;DHT22;9576;47.792;9.628;2023-07-29T15:43:02;19.80;99.90
18888;DHT22;9576;47.792;9.628;2023-07-29T15:46:04;19.80;99.90
18888;DHT22;9576;47.792;9.628;2023-07-29T15:49:06;19.70;99.90
18888;DHT22;9576;47.792;9.628;2023-07-29T15:52:09;19.70;99.90
18888;DHT22;9576;47.792;9.628;2023-07-29T15:55:12;19.60;99.90
18888;DHT22;9576;47.792;9.628;2023-07-29T15:58:13;19.50;99.90
18888;DHT22;9576;47.792;9.628;2023-07-29T16:01:15;19.50;99.90
18888;DHT22;9576;47.792;9.628;2023-07-29T16:04:17;19.50;99.90
18888;DHT22;9576;47.792;9.628;2023-07-29T16:07:21;19.40;99.90
18888;DHT22;9576;47.792;9.628;2023-07-29T16:10:23;19.40;99.90
18888;DHT22;9576;47.792;9.628;2023-07-29T16:13:24;19.30;99.90
18888;DHT22;9576;47.792;9.628;2023-07-29T16:16:28;19.30;99.90
18888;DHT22;9576;47.792;9.628;2023-07-29T16:19:30;19.20;99.90
18888;DHT22;9576;47.792;9.628;2023-07-29T16:22:33;19.10;99.90
18888;DHT22;9576;47.792;9.628;2023-07-29T16:25:35;19.00;99.90
18888;DHT22;9576;47.792;9.628;2023-07-29T16:28:37;19.00;99.90
18888;DHT22;9576;47.792;9.628;2023-07-29T16:31:41;19.00;99.90
18888;DHT22;9576;47.792;9.628;2023-07-29T16:34:43;19.00;99.90
18888;DHT22;9576;47.792;9.628;2023-07-29T16:37:46;19.00;99.90
18888;DHT22;9576;47.792;9.628;2023-07-29T16:40:50;19.10;99.90
18888;DHT22;9576;47.792;9.628;2023-07-29T16:43:52;19.10;99.90
18888;DHT22;9576;47.792;9.628;2023-07-29T16:46:54;19.20;99.90
18888;DHT22;9576;47.792;9.628;2023-07-29T16:49:56;19.20;99.90
18888;DHT22;9576;47.792;9.628;2023-07-29T16:53:01;19.20;99.90
18888;DHT22;9576;47.792;9.628;2023-07-29T16:56:03;19.30;99.90
18888;DHT22;9576;47.792;9.628;2023-07-29T16:59:05;19.30;99.90
18888;DHT22;9576;47.792;9.628;2023-07-29T17:02:07;19.30;99.90
18888;DHT22;9576;47.792;9.628;2023-07-29T17:05:09;19.40;99.90
18888;DHT22;9576;47.792;9.628;2023-07-29T17:08:12;19.40;99.90
18888;DHT22;9576;47.792;9.628;2023-07-29T17:11:14;19.40;99.90
18888;DHT22;9576;47.792;9.628;2023-07-29T17:14:16;19.40;99.90
18888;DHT22;9576;47.792;9.628;2023-07-29T17:17:21;19.40;99.90
18888;DHT22;9576;47.792;9.628;2023-07-29T17:20:24;19.50;99.90
18888;DHT22;9576;47.792;9.628;2023-07-29T17:23:28;19.40;99.90
18888;DHT22;9576;47.792;9.628;2023-07-29T17:26:30;19.30;99.90
18888;DHT22;9576;47.792;9.628;2023-07-29T17:29:31;19.30;99.90
18888;DHT22;9576;47.792;9.628;2023-07-29T17:32:33;19.30;99.90
18888;DHT22;9576;47.792;9.628;2023-07-29T17:35:35;19.30;99.90
18888;DHT22;9576;47.792;9.628;2023-07-29T17:38:38;19.30;99.90
18888;DHT22;9576;47.792;9.628;2023-07-29T17:41:41;19.30;99.90
18888;DHT22;9576;47.792;9.628;2023-07-29T17:44:43;19.30;99.90
18888;DHT22;9576;47.792;9.628;2023-07-29T17:47:45;19.40;99.90
18888;DHT22;9576;47.792;9.628;2023-07-29T17:50:47;19.40;99.90
18888;DHT22;9576;47.792;9.628;2023-07-29T17:53:50;19.40;99.90
18888;DHT22;9576;47.792;9.628;2023-07-29T17:56:52;19.40;99.90
18888;DHT22;9576;47.792;9.628;2023-07-29T17:59:54;19.40;99.90
18888;DHT22;9576;47.792;9.628;2023-07-29T18:02:56;19.40;99.90
18888;DHT22;9576;47.792;9.628;2023-07-29T18:05:58;19.40;99.90
18888;DHT22;9576;47.792;9.628;2023-07-29T18:09:01;19.50;99.90
18888;DHT22;9576;47.792;9.628;2023-07-29T18:12:04;19.40;99.90
18888;DHT22;9576;47.792;9.628;2023-07-29T18:15:07;19.40;99.90
18888;DHT22;9576;47.792;9.628;2023-07-29T18:18:09;19.40;99.90
18888;DHT22;9576;47.792;9.628;2023-07-29T18:21:11;19.30;99.90
18888;DHT22;9576;47.792;9.628;2023-07-29T18:24:14;19.30;99.90
18888;DHT22;9576;47.792;9.628;2023-07-29T18:27:16;19.30;99.90
18888;DHT22;9576;47.792;9.628;2023-07-29T18:30:18;19.20;99.90
18888;DHT22;9576;47.792;9.628;2023-07-29T18:33:20;19.10;99.90
18888;DHT22;9576;47.792;9.628;2023-07-29T18:36:22;19.10;99.90
18888;DHT22;9576;47.792;9.628;2023-07-29T18:39:26;19.10;99.90
18888;DHT22;9576;47.792;9.628;2023-07-29T18:42:28;19.00;99.90
18888;DHT22;9576;47.792;9.628;2023-07-29T18:45:32;18.90;99.90
18888;DHT22;9576;47.792;9.628;2023-07-29T18:48:34;18.90;99.90
18888;DHT22;9576;47.792;9.628;2023-07-29T18:51:36;18.90;99.90
18888;DHT22;9576;47.792;9.628;2023-07-29T18:54:39;18.80;99.90
18888;DHT22;9576;47.792;9.628;2023-07-29T18:57:41;18.80;99.90
18888;DHT22;9576;47.792;9.628;2023-07-29T19:00:43;18.80;99.90
18888;DHT22;9576;47.792;9.628;2023-07-29T19:03:46;18.80;99.90
18888;DHT22;9576;47.792;9.628;2023-07-29T19:06:48;18.80;99.90
18888;DHT22;9576;47.792;9.628;2023-07-29T19:09:57;18.80;99.90
18888;DHT22;9576;47.792;9.628;2023-07-29T19:12:59;18.80;99.90
18888;DHT22;9576;47.792;9.628;2023-07-29T19:16:01;18.90;99.90
18888;DHT22;9576;47.792;9.628;2023-07-29T19:19:07;18.90;99.90
18888;DHT22;9576;47.792;9.628;2023-07-29T19:22:09;18.90;99.90
18888;DHT22;9576;47.792;9.628;2023-07-29T19:25:12;19.00;99.90
18888;DHT22;9576;47.792;9.628;2023-07-29T19:28:14;19.00;99.90
18888;DHT22;9576;47.792;9.628;2023-07-29T19:31:19;18.90;99.90